Time;durP1;ratioP1;P1;durP2;ratioP2;P2;SDS_P1;SDS_P2;PMS_P1;PMS_P2;Temp;Humidity;BMP_temperature;BMP_pressure;BME280_temperature;BME280_humidity;BME280_pressure;Samples;Min_cycle;Max_cycle;Signal;HPM_P1;HPM_P2
2022/08/21 00:02:01;;;;;;;1.80;1.70;;;;;;;18.15;100.00;99037.25;5067754;28;20247;-76
2022/08/21 00:04:28;;;;;;;2.13;1.93;;;;;;;18.37;100.00;99032.19;5054174;28;20688;-82
2022/08/21 00:06:56;;;;;;;1.77;1.67;;;;;;;18.28;100.00;99031.19;5060316;28;20232;-83
2022/08/21 00:09:23;;;;;;;1.80;1.70;;;;;;;18.22;100.00;99035.03;5053694;28;20237;-82
2022/08/21 00:11:49;;;;;;;1.87;1.77;;;;;;;18.34;100.00;99033.56;5063264;28;20229;-82
2022/08/21 00:14:16;;;;;;;1.80;1.70;;;;;;;18.30;100.00;99035.22;5057245;28;20693;-85
2022/08/21 00:16:43;;;;;;;1.90;1.80;;;;;;;18.28;100.00;99029.28;5057565;28;20227;-83
2022/08/21 00:19:09;;;;;;;2.10;1.90;;;;;;;18.47;100.00;99027.50;5063780;28;20311;-84
2022/08/21 00:21:36;;;;;;;2.00;1.90;;;;;;;18.53;100.00;99030.13;5064664;28;20734;-85
2022/08/21 00:24:04;;;;;;;1.63;1.53;;;;;;;18.52;100.00;99023.94;5061663;28;20313;-83
2022/08/21 00:26:30;;;;;;;1.60;1.50;;;;;;;18.45;100.00;99021.53;5058187;28;20246;-82
2022/08/21 00:28:57;;;;;;;1.90;1.80;;;;;;;18.45;100.00;99018.00;5062698;28;20225;-83
2022/08/21 00:31:24;;;;;;;1.87;1.77;;;;;;;18.33;100.00;99012.97;5055071;28;20231;-83
2022/08/21 00:33:51;;;;;;;1.80;1.70;;;;;;;18.38;100.00;99010.19;5063793;28;20234;-83
2022/08/21 00:36:24;;;;;;;2.43;1.90;;;;;;;18.51;100.00;99005.22;5052786;28;20718;-83
2022/08/21 00:38:51;;;;;;;1.90;1.80;;;;;;;18.36;100.00;99004.25;5065659;28;20240;-82
2022/08/21 00:41:18;;;;;;;2.10;1.90;;;;;;;18.41;100.00;99012.34;5057195;28;20283;-84
2022/08/21 00:44:09;;;;;;;1.90;1.80;;;;;;;18.32;100.00;99005.94;5056370;28;20238;-84
2022/08/21 00:46:37;;;;;;;2.00;1.90;;;;;;;18.50;100.00;99009.81;5060918;28;20225;-82
2022/08/21 00:49:05;;;;;;;1.77;1.67;;;;;;;18.52;100.00;99014.97;5056851;28;20268;-84
2022/08/21 00:51:38;;;;;;;2.10;2.00;;;;;;;18.46;100.00;99003.34;5057692;28;20779;-82
2022/08/21 00:54:06;;;;;;;2.03;1.93;;;;;;;18.55;100.00;99004.38;5050128;28;20234;-82
2022/08/21 00:56:46;;;;;;;2.13;2.03;;;;;;;18.39;100.00;99000.16;5056678;28;20232;-82
2022/08/21 00:59:14;;;;;;;2.20;2.10;;;;;;;18.23;100.00;98993.28;5061604;28;20233;-81
2022/08/21 01:01:40;;;;;;;2.50;2.40;;;;;;;18.28;100.00;99002.19;5052440;28;20247;-81
2022/08/21 01:04:07;;;;;;;2.40;2.30;;;;;;;18.33;100.00;99004.03;5059223;28;20226;-83
2022/08/21 01:06:34;;;;;;;2.23;2.10;;;;;;;18.40;100.00;99010.72;5057042;28;20230;-79
2022/08/21 01:09:02;;;;;;;2.20;2.10;;;;;;;18.29;100.00;99017.31;5051120;28;20734;-79
2022/08/21 01:11:29;;;;;;;2.43;2.23;;;;;;;18.21;100.00;99019.84;5051529;28;20230;-81
2022/08/21 01:13:56;;;;;;;2.47;2.37;;;;;;;18.23;100.00;99013.06;5058873;28;20661;-81
2022/08/21 01:16:23;;;;;;;2.80;2.60;;;;;;;18.36;100.00;99008.88;5066096;28;20673;-81
2022/08/21 01:18:50;;;;;;;2.87;2.67;;;;;;;18.36;100.00;99004.25;5058576;28;20229;-82
2022/08/21 01:21:21;;;;;;;2.70;2.50;;;;;;;18.52;100.00;99006.84;5049251;28;20712;-80
2022/08/21 01:23:53;;;;;;;3.27;3.00;;;;;;;18.48;100.00;99014.72;5054259;28;20237;-80
2022/08/21 01:26:25;;;;;;;2.80;2.60;;;;;;;18.53;100.00;99006.56;5055491;28;20224;-81
2022/08/21 01:29:12;;;;;;;3.03;2.83;;;;;;;18.55;100.00;99011.72;5057290;28;20249;-81
2022/08/21 01:31:39;;;;;;;2.97;2.77;;;;;;;18.50;100.00;99007.13;5060091;28;20263;-81
2022/08/21 01:34:07;;;;;;;2.90;2.70;;;;;;;18.52;100.00;99004.94;5058234;28;20222;-83
2022/08/21 01:36:34;;;;;;;2.77;2.57;;;;;;;18.47;100.00;98996.84;5054166;28;20261;-83
2022/08/21 01:39:03;;;;;;;2.70;2.50;;;;;;;18.45;100.00;99007.97;5055198;28;20221;-84
2022/08/21 01:41:30;;;;;;;2.90;2.70;;;;;;;18.54;100.00;98986.50;5037659;28;20612;-84
2022/08/21 01:43:57;;;;;;;2.90;2.70;;;;;;;18.52;100.00;98993.28;5053382;28;20234;-88
2022/08/21 01:46:23;;;;;;;2.80;2.60;;;;;;;18.72;100.00;98996.59;5054615;28;20243;-84
2022/08/21 01:48:50;;;;;;;2.93;2.63;;;;;;;18.71;100.00;98986.06;5055798;28;20228;-87
2022/08/21 01:51:17;;;;;;;2.97;2.77;;;;;;;18.74;100.00;98989.00;5055583;28;20664;-86
2022/08/21 01:53:43;;;;;;;2.90;2.70;;;;;;;18.69;100.00;98978.19;5055534;28;20697;-87
2022/08/21 01:56:13;;;;;;;2.73;2.53;;;;;;;18.72;100.00;98972.19;5052720;28;20228;-86
2022/08/21 01:58:42;;;;;;;2.90;2.70;;;;;;;18.72;100.00;98969.47;5059663;28;20229;-86
2022/08/21 02:01:09;;;;;;;2.80;2.60;;;;;;;18.63;100.00;98973.09;5045007;28;20228;-85
2022/08/21 02:03:36;;;;;;;2.90;2.70;;;;;;;18.81;100.00;98954.16;5058327;28;20312;-86
2022/08/21 02:06:04;;;;;;;2.90;2.70;;;;;;;18.70;100.00;98960.00;5038807;28;20333;-85
2022/08/21 02:08:31;;;;;;;2.93;2.73;;;;;;;18.75;100.00;98958.06;5024936;28;20317;-85
2022/08/21 02:10:58;;;;;;;2.87;2.67;;;;;;;18.79;100.00;98956.38;5057011;28;20236;-84
2022/08/21 02:13:26;;;;;;;2.87;2.67;;;;;;;18.84;100.00;98944.66;5060379;28;20256;-85
2022/08/21 02:15:52;;;;;;;3.00;2.80;;;;;;;18.73;100.00;98948.56;5057983;28;20341;-85
2022/08/21 02:18:19;;;;;;;2.73;2.53;;;;;;;18.65;100.00;98941.88;5059609;28;20253;-85
2022/08/21 02:20:47;;;;;;;2.80;2.60;;;;;;;18.72;100.00;98941.53;5055273;28;20317;-85
2022/08/21 02:23:21;;;;;;;2.50;2.40;;;;;;;18.66;100.00;98934.56;5057216;28;20292;-85
2022/08/21 02:25:57;;;;;;;3.43;2.70;;;;;;;18.67;100.00;98938.88;5065843;28;20230;-83
2022/08/21 02:28:24;;;;;;;2.80;2.60;;;;;;;18.71;100.00;98939.94;5057162;28;20230;-81
2022/08/21 02:30:53;;;;;;;3.23;3.03;;;;;;;18.59;100.00;98943.03;5066830;28;20234;-82
2022/08/21 02:33:20;;;;;;;3.00;2.50;;;;;;;18.69;100.00;98933.97;5060875;28;20232;-82
2022/08/21 02:35:47;;;;;;;2.57;2.47;;;;;;;18.70;100.00;98949.16;5057524;28;20700;-81
2022/08/21 02:38:18;;;;;;;3.07;2.87;;;;;;;18.76;100.00;98937.13;5058864;28;20263;-85
2022/08/21 02:40:47;;;;;;;3.97;2.77;;;;;;;18.73;100.00;98935.00;5063366;28;20225;-85
2022/08/21 02:43:18;;;;;;;2.97;2.50;;;;;;;18.63;100.00;98945.97;5061686;28;20227;-86
2022/08/21 02:45:46;;;;;;;2.90;2.70;;;;;;;18.59;100.00;98940.31;5064575;28;20309;-84
2022/08/21 02:48:16;;;;;;;2.70;2.50;;;;;;;18.65;100.00;98935.66;5058461;28;20233;-85
2022/08/21 02:50:48;;;;;;;3.10;2.90;;;;;;;18.51;100.00;98935.50;5059484;28;20221;-80
2022/08/21 02:53:16;;;;;;;3.03;2.73;;;;;;;18.42;100.00;98940.75;5059604;28;20237;-83
2022/08/21 02:55:48;;;;;;;2.80;2.60;;;;;;;18.48;100.00;98933.34;5066031;28;20226;-81
2022/08/21 02:58:17;;;;;;;2.77;2.57;;;;;;;18.39;100.00;98940.50;5059433;28;20237;-82
2022/08/21 03:00:45;;;;;;;3.10;2.80;;;;;;;18.29;100.00;98941.41;5056362;28;20226;-81
2022/08/21 03:03:14;;;;;;;2.77;2.57;;;;;;;18.43;100.00;98945.06;5062870;28;20230;-81
2022/08/21 03:05:41;;;;;;;2.80;2.60;;;;;;;18.49;100.00;98940.41;5045393;28;20225;-81
2022/08/21 03:08:10;;;;;;;2.73;2.53;;;;;;;18.44;100.00;98951.28;5059796;28;20232;-81
2022/08/21 03:10:40;;;;;;;2.90;2.70;;;;;;;18.60;100.00;98944.66;5056827;28;20225;-80
2022/08/21 03:13:08;;;;;;;3.03;2.73;;;;;;;18.55;100.00;98950.13;5062411;28;20244;-82
2022/08/21 03:15:34;;;;;;;3.00;2.80;;;;;;;18.41;100.00;98951.88;5057604;28;20960;-82
2022/08/21 03:18:04;;;;;;;3.20;3.00;;;;;;;18.44;100.00;98951.28;5058721;28;20248;-80
2022/08/21 03:20:32;;;;;;;3.10;2.90;;;;;;;18.36;100.00;98952.75;5050437;28;20587;-81
2022/08/21 03:23:00;;;;;;;3.30;3.00;;;;;;;18.53;100.00;98952.31;5056256;28;20322;-81
2022/08/21 03:25:28;;;;;;;2.73;2.63;;;;;;;18.43;100.00;98949.66;5054899;28;20245;-81
2022/08/21 03:28:12;;;;;;;2.77;2.57;;;;;;;18.53;100.00;98951.47;5058384;28;20351;-81
2022/08/21 03:30:44;;;;;;;3.07;2.87;;;;;;;18.45;100.00;98952.91;5058494;28;20225;-81
2022/08/21 03:33:11;;;;;;;3.00;2.80;;;;;;;18.42;100.00;98958.94;5056337;28;20249;-81
2022/08/21 03:35:42;;;;;;;2.87;2.67;;;;;;;18.39;100.00;98959.47;5056490;28;20249;-81
2022/08/21 03:38:09;;;;;;;3.10;2.90;;;;;;;18.37;100.00;98950.84;5053596;28;20272;-82
2022/08/21 03:40:36;;;;;;;3.10;2.90;;;;;;;18.31;100.00;98952.78;5058112;28;20325;-81
2022/08/21 03:43:02;;;;;;;3.00;2.80;;;;;;;18.48;100.00;98963.19;5056431;28;20340;-81
2022/08/21 03:45:29;;;;;;;2.90;2.70;;;;;;;18.36;100.00;98979.84;5059231;28;20313;-83
2022/08/21 03:47:58;;;;;;;3.10;2.90;;;;;;;18.41;100.00;98960.81;5056428;28;20229;-81
2022/08/21 03:50:27;;;;;;;2.50;2.30;;;;;;;18.22;100.00;98973.47;5064658;28;20318;-84
2022/08/21 03:52:53;;;;;;;2.67;2.47;;;;;;;18.19;100.00;98978.66;5063309;28;20727;-80
2022/08/21 03:55:21;;;;;;;2.63;2.43;;;;;;;18.16;100.00;98979.22;5057748;28;20223;-82
2022/08/21 03:57:47;;;;;;;3.07;2.87;;;;;;;18.20;100.00;98978.38;5054561;28;20242;-83
2022/08/21 04:00:15;;;;;;;2.90;2.70;;;;;;;18.08;100.00;98977.94;5061479;28;20234;-81
2022/08/21 04:02:43;;;;;;;3.30;3.00;;;;;;;18.09;100.00;98981.47;5058339;28;20229;-82
2022/08/21 04:05:13;;;;;;;2.60;2.50;;;;;;;18.18;100.00;98977.84;5060766;28;20312;-83
2022/08/21 04:07:40;;;;;;;2.43;2.33;;;;;;;18.25;100.00;98981.03;5057345;28;20269;-82
2022/08/21 04:10:07;;;;;;;2.57;2.47;;;;;;;18.06;100.00;98980.13;5058441;28;20244;-83
2022/08/21 04:12:34;;;;;;;2.30;2.10;;;;;;;18.05;100.00;98981.22;5056746;28;20234;-84
2022/08/21 04:15:01;;;;;;;2.57;2.37;;;;;;;18.02;100.00;98987.19;5057074;28;20252;-84
2022/08/21 04:17:28;;;;;;;2.37;2.17;;;;;;;18.07;100.00;98986.34;5056188;28;20233;-84
2022/08/21 04:19:55;;;;;;;1.97;1.87;;;;;;;18.09;100.00;98987.69;5059338;28;20235;-83
2022/08/21 04:22:22;;;;;;;1.63;1.53;;;;;;;18.08;100.00;98988.78;5053736;28;20234;-84
2022/08/21 04:24:49;;;;;;;1.70;1.60;;;;;;;18.02;100.00;98996.13;5055085;28;20394;-85
2022/08/21 04:27:16;;;;;;;1.70;1.60;;;;;;;17.99;100.00;98995.91;5056932;28;20294;-84
2022/08/21 04:29:42;;;;;;;1.93;1.70;;;;;;;18.09;100.00;98993.13;5041064;28;20224;-84
2022/08/21 04:32:09;;;;;;;1.57;1.47;;;;;;;18.10;100.00;98999.34;5059975;28;20234;-86
2022/08/21 04:34:36;;;;;;;1.70;1.60;;;;;;;18.04;100.00;99002.09;5049910;28;20232;-81
2022/08/21 04:37:03;;;;;;;1.70;1.60;;;;;;;18.11;100.00;99001.75;5057627;28;20223;-85
2022/08/21 04:39:30;;;;;;;1.67;1.50;;;;;;;18.17;100.00;98994.41;5059517;28;20318;-86
2022/08/21 04:41:56;;;;;;;1.27;1.27;;;;;;;18.38;100.00;99009.41;5062559;28;20784;-83
2022/08/21 04:44:23;;;;;;;1.20;1.10;;;;;;;18.39;100.00;99006.41;5023862;28;20251;-85
2022/08/21 04:46:50;;;;;;;1.20;1.10;;;;;;;18.31;100.00;99007.03;5058522;28;20232;-86
2022/08/21 04:49:17;;;;;;;0.83;0.83;;;;;;;18.33;100.00;99014.88;5063381;28;20958;-86
2022/08/21 04:51:44;;;;;;;1.33;0.90;;;;;;;18.37;100.00;99015.91;5043351;28;20972;-86
2022/08/21 04:54:15;;;;;;;0.90;0.90;;;;;;;18.45;100.00;99021.53;5057358;28;20313;-86
2022/08/21 04:56:49;;;;;;;0.90;0.80;;;;;;;18.40;100.00;99013.44;5046233;28;20238;-86
2022/08/21 04:59:24;;;;;;;1.10;1.00;;;;;;;18.38;100.00;99012.91;5062652;28;20316;-87
2022/08/21 05:01:51;;;;;;;0.90;0.90;;;;;;;18.58;100.00;99016.56;5056657;28;20229;-86
2022/08/21 05:04:22;;;;;;;1.00;0.90;;;;;;;18.52;100.00;99020.41;5057860;28;20220;-84
2022/08/21 05:06:50;;;;;;;0.80;0.80;;;;;;;18.52;100.00;99025.81;5035580;28;20245;-86
2022/08/21 05:09:18;;;;;;;0.80;0.80;;;;;;;18.51;100.00;99025.00;5053614;28;20225;-86
2022/08/21 05:11:45;;;;;;;0.90;0.80;;;;;;;18.49;100.00;99025.28;5035246;28;20238;-84
2022/08/21 05:14:12;;;;;;;1.23;0.90;;;;;;;18.57;100.00;99028.53;5037285;28;20213;-86
2022/08/21 05:16:39;;;;;;;1.00;1.00;;;;;;;18.63;100.00;99021.94;5041322;28;20224;-83
2022/08/21 05:19:06;;;;;;;0.83;0.83;;;;;;;18.83;100.00;99021.72;5064300;28;20233;-85
2022/08/21 05:21:35;;;;;;;0.90;0.90;;;;;;;18.75;100.00;99027.78;5062039;28;20766;-85
2022/08/21 05:24:02;;;;;;;0.80;0.80;;;;;;;18.87;100.00;99022.78;5046854;28;20227;-85
2022/08/21 05:26:29;;;;;;;0.80;0.80;;;;;;;18.80;100.00;99030.47;5057871;28;20313;-85
2022/08/21 05:28:56;;;;;;;0.97;0.97;;;;;;;18.85;100.00;99028.47;5058206;28;20287;-85
2022/08/21 05:31:23;;;;;;;1.00;1.00;;;;;;;18.82;100.00;99042.63;5053018;28;20225;-85
2022/08/21 05:33:50;;;;;;;1.00;1.00;;;;;;;18.94;100.00;99030.59;5064579;28;20217;-83
2022/08/21 05:36:18;;;;;;;1.00;1.00;;;;;;;18.90;100.00;99028.41;5063816;28;20239;-86
2022/08/21 05:38:45;;;;;;;1.10;1.10;;;;;;;18.96;100.00;99034.63;5056302;28;20225;-85
2022/08/21 05:41:12;;;;;;;0.80;0.80;;;;;;;19.25;100.00;99029.13;5034012;28;20226;-84
2022/08/21 05:43:39;;;;;;;1.00;1.00;;;;;;;19.39;100.00;99021.88;5054687;28;20261;-84
2022/08/21 05:46:06;;;;;;;1.30;1.20;;;;;;;19.71;100.00;99029.34;5060259;28;20233;-84
2022/08/21 05:48:34;;;;;;;1.10;1.00;;;;;;;20.04;100.00;99028.31;5038014;28;20710;-84
2022/08/21 05:51:06;;;;;;;1.47;1.10;;;;;;;20.21;100.00;99025.03;5051459;28;20224;-83
2022/08/21 05:53:33;;;;;;;1.10;1.10;;;;;;;20.25;100.00;99028.00;5033400;28;20243;-85
2022/08/21 05:56:03;;;;;;;1.20;1.20;;;;;;;20.39;100.00;99018.78;5060791;28;20228;-84
2022/08/21 05:58:31;;;;;;;1.50;1.33;;;;;;;20.38;100.00;99027.25;5047050;28;20278;-84
2022/08/21 06:00:58;;;;;;;1.27;1.17;;;;;;;20.50;100.00;99022.94;5046669;28;20223;-85
2022/08/21 06:03:27;;;;;;;1.30;1.20;;;;;;;20.70;100.00;99029.94;5059961;28;20232;-86
2022/08/21 06:05:55;;;;;;;1.10;1.10;;;;;;;20.65;100.00;99025.41;5058015;28;20328;-85
2022/08/21 06:08:22;;;;;;;1.10;1.10;;;;;;;20.73;100.00;99031.25;5051458;28;20266;-83
2022/08/21 06:10:50;;;;;;;1.00;1.00;;;;;;;20.65;100.00;99030.03;5059019;28;20235;-83
2022/08/21 06:13:19;;;;;;;1.10;1.10;;;;;;;20.50;100.00;99030.28;5062484;28;20610;-84
2022/08/21 06:15:45;;;;;;;1.27;1.17;;;;;;;20.67;100.00;99034.06;5057759;28;20335;-83
2022/08/21 06:18:12;;;;;;;1.10;1.10;;;;;;;20.97;100.00;99034.59;5054851;28;20257;-82
2022/08/21 06:20:39;;;;;;;1.10;1.10;;;;;;;21.01;100.00;99041.06;5055767;28;20760;-83
2022/08/21 06:23:06;;;;;;;1.13;1.13;;;;;;;20.86;100.00;99031.25;5063302;28;20249;-84
2022/08/21 06:25:33;;;;;;;1.20;1.20;;;;;;;20.94;100.00;99041.47;5051274;28;20280;-85
2022/08/21 06:28:09;;;;;;;1.40;1.30;;;;;;;21.14;100.00;99047.69;5061717;28;20623;-83
2022/08/21 06:30:38;;;;;;;1.30;1.30;;;;;;;20.99;100.00;99046.03;5049161;28;20224;-83
2022/08/21 06:33:06;;;;;;;1.50;1.40;;;;;;;20.83;100.00;99048.22;5056211;28;20242;-83
2022/08/21 06:35:33;;;;;;;1.50;1.20;;;;;;;20.95;100.00;99053.97;5058733;28;20242;-83
2022/08/21 06:38:00;;;;;;;1.10;1.10;;;;;;;21.04;100.00;99051.38;5062027;28;20680;-84
2022/08/21 06:40:28;;;;;;;1.33;1.23;;;;;;;21.06;100.00;99044.50;5064926;28;20249;-83
2022/08/21 06:42:58;;;;;;;1.43;1.37;;;;;;;21.38;100.00;99049.06;5045735;28;20233;-83
2022/08/21 06:45:26;;;;;;;1.57;1.47;;;;;;;21.48;100.00;99046.13;5063803;28;20314;-82
2022/08/21 06:47:58;;;;;;;1.47;1.40;;;;;;;21.97;100.00;99046.47;5065181;28;20227;-82
2022/08/21 06:50:24;;;;;;;1.43;1.33;;;;;;;22.19;100.00;99036.38;5065891;28;20337;-82
2022/08/21 06:53:02;;;;;;;1.43;1.33;;;;;;;22.40;100.00;99036.66;5064485;28;20678;-84
2022/08/21 06:55:29;;;;;;;1.50;1.40;;;;;;;22.48;95.80;99035.13;5063374;28;20243;-84
2022/08/21 06:57:56;;;;;;;1.53;1.43;;;;;;;22.98;93.71;99042.00;5062856;28;20256;-84
2022/08/21 07:00:22;;;;;;;1.75;1.65;;;;;;;23.19;90.16;99043.03;5058103;28;20227;-84
2022/08/21 07:02:49;;;;;;;1.60;1.50;;;;;;;23.22;87.62;99047.88;5058411;28;20260;-83
2022/08/21 07:05:17;;;;;;;1.77;1.67;;;;;;;23.00;89.35;99042.50;5045069;28;20221;-86
2022/08/21 07:07:45;;;;;;;1.80;1.70;;;;;;;22.90;93.52;99041.97;5059709;28;20243;-84
2022/08/21 07:10:12;;;;;;;1.77;1.67;;;;;;;22.43;96.41;99046.16;5056921;28;20379;-85
2022/08/21 07:12:49;;;;;;;2.03;1.77;;;;;;;22.17;100.00;99037.78;5042699;28;20711;-86
2022/08/21 07:15:25;;;;;;;1.83;1.73;;;;;;;21.96;100.00;99029.28;5056751;28;20241;-84
2022/08/21 07:17:52;;;;;;;2.60;2.17;;;;;;;21.80;100.00;99042.41;5069418;28;20259;-86
2022/08/21 07:20:18;;;;;;;2.13;1.90;;;;;;;21.67;100.00;99043.25;5057501;28;20243;-84
2022/08/21 07:22:45;;;;;;;2.00;1.90;;;;;;;21.35;100.00;99051.59;5038189;28;20227;-83
2022/08/21 07:25:12;;;;;;;1.83;1.73;;;;;;;21.25;100.00;99049.06;5062599;28;20315;-83
2022/08/21 07:27:38;;;;;;;2.13;1.90;;;;;;;21.18;100.00;99045.94;5057548;28;20249;-86
2022/08/21 07:30:06;;;;;;;2.17;2.07;;;;;;;21.24;100.00;99048.25;5059522;28;20306;-85
2022/08/21 07:32:32;;;;;;;1.97;1.87;;;;;;;21.25;100.00;99036.25;5042453;28;20235;-86
2022/08/21 07:34:59;;;;;;;2.00;1.90;;;;;;;21.48;100.00;99031.69;5058576;28;20236;-86
2022/08/21 07:37:26;;;;;;;2.10;2.00;;;;;;;21.35;100.00;99032.50;5056100;28;20312;-86
2022/08/21 07:39:52;;;;;;;2.17;2.07;;;;;;;21.18;100.00;99041.31;5053418;28;20605;-86
2022/08/21 07:42:19;;;;;;;2.37;2.17;;;;;;;21.20;100.00;99043.72;5055424;28;20232;-86
2022/08/21 07:44:46;;;;;;;2.30;2.20;;;;;;;20.93;100.00;99039.84;5061246;28;20241;-85
2022/08/21 07:47:15;;;;;;;2.30;2.10;;;;;;;20.82;100.00;99041.16;5058456;28;20225;-86
2022/08/21 07:50:01;;;;;;;2.00;1.90;;;;;;;20.87;100.00;99029.34;5063120;28;20247;-86
2022/08/21 07:52:30;;;;;;;2.53;2.40;;;;;;;20.88;100.00;99039.13;5040121;28;20317;-85
2022/08/21 07:54:59;;;;;;;2.20;2.10;;;;;;;20.97;100.00;99045.50;5052560;28;20241;-86
2022/08/21 07:57:31;;;;;;;2.20;2.10;;;;;;;21.05;100.00;99033.91;5056010;28;20230;-86
2022/08/21 07:59:58;;;;;;;2.07;1.97;;;;;;;20.98;100.00;99037.03;5051189;28;20230;-86
2022/08/21 08:02:26;;;;;;;2.10;2.00;;;;;;;20.83;100.00;99037.31;5055280;28;20232;-86
2022/08/21 08:04:53;;;;;;;1.80;1.70;;;;;;;20.72;100.00;99033.16;5022935;28;20765;-87
2022/08/21 08:07:20;;;;;;;2.00;1.90;;;;;;;20.78;100.00;99039.31;5060967;28;20230;-86
2022/08/21 08:09:47;;;;;;;2.03;1.87;;;;;;;20.99;100.00;99026.97;5039217;28;20795;-86
2022/08/21 08:12:13;;;;;;;2.07;1.67;;;;;;;20.94;100.00;99036.03;5055654;28;20235;-87
2022/08/21 08:14:40;;;;;;;1.70;1.60;;;;;;;21.02;100.00;99026.34;5054203;28;20927;-85
2022/08/21 08:17:06;;;;;;;1.97;1.77;;;;;;;20.96;100.00;99032.97;5057641;28;20317;-86
2022/08/21 08:19:33;;;;;;;1.70;1.60;;;;;;;21.28;100.00;99032.91;5058721;28;20231;-86
2022/08/21 08:22:00;;;;;;;1.67;1.57;;;;;;;21.41;100.00;99028.59;5056714;28;20239;-85
2022/08/21 08:24:27;;;;;;;1.80;1.70;;;;;;;21.52;100.00;99028.03;5056378;28;20241;-84
2022/08/21 08:26:54;;;;;;;1.83;1.73;;;;;;;21.64;100.00;99024.81;5053364;28;20326;-86
2022/08/21 08:29:21;;;;;;;1.53;1.43;;;;;;;21.92;100.00;99020.88;5061301;28;20249;-87
2022/08/21 08:31:48;;;;;;;1.60;1.50;;;;;;;21.98;100.00;99024.31;5038485;28;20241;-86
2022/08/21 08:34:17;;;;;;;1.70;1.60;;;;;;;22.28;100.00;99020.84;5057582;28;20319;-86
2022/08/21 08:36:51;;;;;;;1.63;1.53;;;;;;;22.30;100.00;99024.06;5057424;28;20601;-86
2022/08/21 08:39:17;;;;;;;1.67;1.57;;;;;;;22.15;100.00;99019.00;5055768;28;20235;-85
2022/08/21 08:42:24;;;;;;;1.40;1.40;;;;;;;22.43;98.68;99021.59;5061711;28;20292;-86
2022/08/21 08:45:07;;;;;;;1.80;1.70;;;;;;;22.49;96.60;99021.13;5055518;28;20220;-85
2022/08/21 08:47:44;;;;;;;1.90;1.80;;;;;;;22.51;98.66;99031.75;5061459;28;20228;-85
2022/08/21 08:50:25;;;;;;;1.80;1.70;;;;;;;22.35;97.02;99018.47;5057175;28;20224;-86
2022/08/21 08:52:57;;;;;;;1.70;1.60;;;;;;;22.33;96.78;99017.19;5056130;28;20717;-86
2022/08/21 08:55:32;;;;;;;1.90;1.80;;;;;;;22.28;98.96;99020.06;5055962;28;20228;-85
2022/08/21 08:57:58;;;;;;;1.90;1.80;;;;;;;22.39;97.53;99035.88;5049500;28;20694;-86
2022/08/21 09:00:25;;;;;;;2.20;2.10;;;;;;;22.55;95.34;99025.34;5058473;28;20758;-86
2022/08/21 09:02:58;;;;;;;2.27;2.17;;;;;;;22.40;97.53;99018.34;5060794;28;20724;-86
2022/08/21 09:05:41;;;;;;;1.90;1.80;;;;;;;22.51;98.61;99029.03;5043460;28;20235;-86
2022/08/21 09:08:28;;;;;;;2.10;2.00;;;;;;;22.40;97.73;99018.34;5055632;28;20236;-86
2022/08/21 09:11:21;;;;;;;1.77;1.67;;;;;;;22.36;99.08;99017.38;5052910;28;20712;-86
2022/08/21 09:14:17;;;;;;;1.80;1.70;;;;;;;22.64;97.25;99011.75;5055013;28;20266;-87
2022/08/21 09:17:13;;;;;;;2.00;1.90;;;;;;;22.83;94.88;99024.09;5057758;28;20222;-86
2022/08/21 09:20:18;;;;;;;1.70;1.60;;;;;;;22.23;100.00;99012.78;5050859;28;20605;-87
2022/08/21 09:22:58;;;;;;;1.80;1.70;;;;;;;22.15;100.00;99010.00;5046580;28;20598;-86
2022/08/21 09:25:33;;;;;;;1.73;1.63;;;;;;;22.74;98.35;99004.13;5051304;28;20223;-86
2022/08/21 09:27:59;;;;;;;1.75;1.65;;;;;;;23.11;93.67;99004.75;5050226;28;20255;-83
2022/08/21 09:30:30;;;;;;;1.60;1.50;;;;;;;23.76;87.90;99001.19;5055448;28;20762;-86
2022/08/21 09:32:57;;;;;;;1.50;1.40;;;;;;;23.79;84.92;99008.78;5062043;28;20312;-84
2022/08/21 09:35:25;;;;;;;1.50;1.40;;;;;;;24.17;81.95;99001.53;5057452;28;20328;-85
2022/08/21 09:37:51;;;;;;;1.30;1.30;;;;;;;24.77;77.80;98995.13;5060386;28;20579;-86
2022/08/21 09:40:44;;;;;;;1.40;1.40;;;;;;;25.02;76.58;98994.22;5062480;28;20239;-86
2022/08/21 09:43:11;;;;;;;1.35;1.27;;;;;;;24.71;78.91;98999.97;5060255;28;20267;-86
2022/08/21 09:45:39;;;;;;;1.10;1.10;;;;;;;24.62;77.35;98984.69;5056847;28;20312;-86
2022/08/21 09:48:18;;;;;;;1.05;1.05;;;;;;;24.81;78.03;98983.19;5054794;28;20260;-86
2022/08/21 09:50:47;;;;;;;1.15;1.15;;;;;;;24.48;77.70;98980.22;5024862;28;20249;-86
2022/08/21 09:53:28;;;;;;;1.00;1.00;;;;;;;24.53;77.62;98980.06;5049461;28;20226;-86
2022/08/21 09:59:00;;;;;;;0.93;0.93;;;;;;;24.46;80.54;98976.19;5056063;28;20232;-85
2022/08/21 10:01:26;;;;;;;1.50;0.90;;;;;;;24.71;77.62;98974.50;5065259;28;20244;-85
2022/08/21 10:04:04;;;;;;;1.00;1.00;;;;;;;24.56;78.96;98976.66;5062060;28;20876;-82
2022/08/21 10:06:31;;;;;;;1.10;1.00;;;;;;;24.71;78.44;98975.31;5058726;28;20277;-85
2022/08/21 10:09:11;;;;;;;1.15;0.90;;;;;;;24.42;79.16;98976.06;5047561;28;20703;-86
2022/08/21 10:11:53;;;;;;;1.02;1.00;;;;;;;24.35;79.61;98974.97;5049895;28;20581;-86
2022/08/21 10:14:26;;;;;;;0.95;0.95;;;;;;;24.46;77.26;98973.47;5038594;28;20239;-86
2022/08/21 10:17:01;;;;;;;1.10;1.00;;;;;;;24.98;74.93;98972.16;5049315;28;20256;-86
2022/08/21 10:20:08;;;;;;;0.90;0.90;;;;;;;24.66;75.30;98970.03;5051255;28;20262;-86
2022/08/21 10:22:50;;;;;;;0.85;0.85;;;;;;;24.32;76.63;98975.59;5057032;28;20243;-85
2022/08/21 10:25:25;;;;;;;0.93;0.93;;;;;;;23.51;84.58;98992.66;5064342;28;20244;-86
2022/08/21 10:28:24;;;;;;;1.02;1.02;;;;;;;22.91;96.71;98983.50;5070636;28;20232;-85
2022/08/21 10:31:06;;;;;;;1.10;1.10;;;;;;;22.57;100.00;98987.63;5056791;28;20252;-86
2022/08/21 10:33:44;;;;;;;1.00;1.00;;;;;;;22.30;100.00;98974.16;5066257;28;20266;-86
2022/08/21 10:36:16;;;;;;;1.27;1.27;;;;;;;22.64;100.00;98982.53;5049325;28;20240;-86
2022/08/21 10:39:02;;;;;;;2.65;1.20;;;;;;;22.53;100.00;98980.41;5039309;28;20580;-87
2022/08/21 10:42:01;;;;;;;1.10;1.10;;;;;;;22.80;100.00;98980.22;5035505;28;20242;-87
2022/08/21 10:44:38;;;;;;;1.23;1.17;;;;;;;22.83;100.00;98982.31;5055837;28;20381;-86
2022/08/21 10:47:22;;;;;;;1.17;1.17;;;;;;;22.88;97.28;98979.44;5059304;28;20236;-85
2022/08/21 10:49:57;;;;;;;1.00;1.00;;;;;;;22.83;94.95;98985.03;5052697;28;20250;-87
2022/08/21 10:52:46;;;;;;;1.23;1.20;;;;;;;22.90;95.20;98988.13;5063996;28;20242;-86
2022/08/21 10:55:20;;;;;;;1.27;1.10;;;;;;;22.87;98.78;98985.22;5062109;28;20221;-83
2022/08/21 10:57:57;;;;;;;1.37;1.27;;;;;;;22.71;100.00;98996.56;5040458;28;20247;-86
2022/08/21 11:00:33;;;;;;;1.33;1.30;;;;;;;22.70;100.00;98996.88;5038883;28;20235;-86
2022/08/21 11:03:25;;;;;;;1.40;1.30;;;;;;;22.58;100.00;98991.19;5042616;28;20244;-87
2022/08/21 11:05:55;;;;;;;1.20;1.20;;;;;;;22.75;100.00;98986.63;5037248;28;20260;-86
2022/08/21 11:08:38;;;;;;;1.20;1.20;;;;;;;22.97;100.00;98988.47;5037359;28;20279;-86
2022/08/21 11:11:14;;;;;;;1.30;1.30;;;;;;;22.80;100.00;98980.22;5082101;28;20334;-87
2022/08/21 11:13:51;;;;;;;1.40;1.40;;;;;;;22.87;100.00;98982.47;5048493;28;20239;-85
2022/08/21 11:16:26;;;;;;;1.40;1.30;;;;;;;22.85;100.00;98988.28;5048968;28;20241;-87
2022/08/21 11:19:09;;;;;;;1.33;1.30;;;;;;;22.95;100.00;98984.47;5053279;28;20229;-86
2022/08/21 11:21:47;;;;;;;1.60;1.50;;;;;;;22.67;100.00;98986.56;5045120;28;20233;-86
2022/08/21 11:24:40;;;;;;;1.50;1.40;;;;;;;22.77;100.00;98989.03;5061007;28;20232;-86
2022/08/21 11:27:14;;;;;;;1.48;1.38;;;;;;;22.71;100.00;98993.03;5066979;28;20273;-86
2022/08/21 11:29:44;;;;;;;1.63;1.40;;;;;;;22.37;100.00;98997.16;5061664;28;20714;-87
2022/08/21 11:32:38;;;;;;;1.10;1.10;;;;;;;22.45;100.00;99013.88;5065833;28;20698;-88
2022/08/21 11:35:28;;;;;;;1.00;1.00;;;;;;;22.86;100.00;99003.56;5053272;28;20257;-87
2022/08/21 11:37:54;;;;;;;1.30;1.20;;;;;;;22.63;100.00;99012.88;5052508;28;20703;-87
2022/08/21 11:40:48;;;;;;;0.97;0.87;;;;;;;22.57;100.00;99000.47;5047609;28;20245;-84
2022/08/21 11:43:23;;;;;;;1.07;1.00;;;;;;;23.20;100.00;99005.56;5060132;28;20230;-87
2022/08/21 11:45:52;;;;;;;0.90;0.90;;;;;;;23.58;97.46;98995.72;5057187;28;20249;-87
2022/08/21 11:48:36;;;;;;;1.90;0.93;;;;;;;23.51;95.49;98997.34;5051511;28;20754;-86